| time (UTC) | temp C | wind direction | speed KPH | gust KPH | rain 1hr cm | rain 24hr cm | rain mn cm | humidity % | barometer mb |
| 20260903071109 | 17 | 271 | 14.5 | 19.3 | 0.00 | 0.00 | 0.00 | 68 | 1023.4 |
| 20260903064108 | 17 | 270 | 12.9 | 20.9 | 0.00 | 0.00 | 0.00 | 72 | 1023.6 |
| 20260903061109 | 16 | 275 | 11.3 | 17.7 | 0.00 | 0.00 | 0.00 | 73 | 1023.7 |
| 20260903054108 | 16 | 274 | 12.9 | 20.9 | 0.00 | 0.00 | 0.00 | 73 | 1023.8 |
| 20260903051109 | 16 | 259 | 12.9 | 22.5 | 0.00 | 0.00 | 0.00 | 74 | 1022.8 |
| 20260903044108 | 16 | 261 | 14.5 | 22.5 | 0.00 | 0.00 | 0.00 | 73 | 1022.8 |
| 20260903041108 | 16 | 249 | 14.5 | 20.9 | 0.00 | 0.00 | 0.00 | 73 | 1022.8 |
| 20260903031109 | 16 | 261 | 14.5 | 24.1 | 0.00 | 0.00 | 0.00 | 72 | 1022.7 |
| 20260903021108 | 17 | 270 | 14.5 | 20.9 | 0.00 | 0.00 | 0.00 | 67 | 1022.5 |
| 20260903014108 | 17 | 266 | 17.7 | 24.1 | 0.00 | 0.00 | 0.00 | 64 | 1022.3 |
| 20260903011109 | 18 | 263 | 19.3 | 27.4 | 0.00 | 0.00 | 0.00 | 60 | 1022.1 |
| 20260903004109 | 18 | 266 | 16.1 | 29.0 | 0.00 | 0.00 | 0.00 | 58 | 1022.0 |
| 20260903001508 | 18 | 257 | 19.3 | 27.4 | 0.00 | 0.00 | 0.00 | 57 | 1021.9 |
| 20260902234109 | 18 | 248 | 17.7 | 24.1 | 0.00 | 0.00 | 0.00 | 58 | 1022.1 |
| 20260902224109 | 19 | 229 | 16.1 | 24.1 | 0.00 | 0.00 | 0.00 | 59 | 1021.8 |
| 20260902221109 | 19 | 192 | 11.3 | 14.5 | 0.00 | 0.00 | 0.00 | 60 | 1021.8 |
| 20260902214109 | 20 | 165 | 6.4 | 8.0 | 0.00 | 0.00 | 0.00 | 59 | 1021.7 |
| 20260902211109 | 20 | 143 | 6.4 | 6.4 | 0.00 | 0.00 | 0.00 | 58 | 1021.6 |
| 20260902204110 | 20 | 129 | 6.4 | 6.4 | 0.00 | 0.00 | 0.00 | 59 | 1021.6 |
| 20260902201109 | 20 | 117 | 6.4 | 8.0 | 0.00 | 0.00 | 0.00 | 59 | 1021.7 |
| 20260902194109 | 20 | 103 | 6.4 | 9.7 | 0.00 | 0.00 | 0.00 | 56 | 1021.6 |
| 20260902191109 | 20 | 77 | 6.4 | 8.0 | 0.00 | 0.00 | 0.00 | 55 | 1020.4 |
| 20260902184109 | 20 | 81 | 4.8 | 6.4 | 0.00 | 0.00 | 0.00 | 56 | 1020.4 |
| 20260902181109 | 20 | 56 | 6.4 | 9.7 | 0.00 | 0.00 | 0.00 | 59 | 1020.5 |
| 20260902174109 | 20 | 57 | 4.8 | 9.7 | 0.00 | 0.00 | 0.00 | 59 | 1020.4 |
| 20260902171109 | 22 | 59 | 1.6 | 4.8 | 0.00 | 0.00 | 0.00 | 56 | 1020.0 |
| 20260902164109 | 22 | 327 | 4.8 | 12.9 | 0.00 | 0.00 | 0.00 | 56 | 1020.0 |
| 20260902161109 | 22 | 289 | 6.4 | 12.9 | 0.00 | 0.00 | 0.00 | 54 | 1019.9 |
| 20260902154109 | 22 | 274 | 12.9 | 20.9 | 0.00 | 0.00 | 0.00 | 56 | 1020.0 |
| 20260902151109 | 22 | 293 | 11.3 | 20.9 | 0.00 | 0.00 | 0.00 | 55 | 1019.9 |
| 20260902144109 | 22 | 314 | 11.3 | 19.3 | 0.00 | 0.00 | 0.00 | 54 | 1019.9 |
| 20260902141109 | 22 | 300 | 9.7 | 20.9 | 0.00 | 0.00 | 0.00 | 55 | 1019.9 |
| 20260902134108 | 22 | 317 | 9.7 | 24.1 | 0.00 | 0.00 | 0.00 | 56 | 1020.0 |
| 20260902131109 | 22 | 336 | 6.4 | 14.5 | 0.00 | 0.00 | 0.00 | 58 | 1021.1 |
| 20260902124108 | 22 | 339 | 6.4 | 16.1 | 0.00 | 0.00 | 0.00 | 59 | 1021.0 |
| 20260902121109 | 22 | 335 | 6.4 | 14.5 | 0.00 | 0.00 | 0.00 | 59 | 1021.1 |
| 20260902114109 | 21 | 342 | 4.8 | 11.3 | 0.00 | 0.00 | 0.00 | 59 | 1021.1 |
| 20260902111109 | 22 | 330 | 6.4 | 12.9 | 0.00 | 0.00 | 0.00 | 60 | 1021.0 |
| 20260902104109 | 20 | 303 | 4.8 | 9.7 | 0.00 | 0.00 | 0.00 | 67 | 1021.5 |
| 20260902101109 | 21 | 168 | 3.2 | 9.7 | 0.00 | 0.00 | 0.00 | 62 | 1021.3 |
| 20260902094109 | 20 | 114 | 4.8 | 11.3 | 0.00 | 0.00 | 0.00 | 61 | 1021.5 |
| 20260902091108 | 18 | 302 | 4.8 | 8.0 | 0.00 | 0.00 | 0.00 | 70 | 1022.0 |
| 20260902084108 | 18 | 299 | 4.8 | 8.0 | 0.00 | 0.00 | 0.00 | 72 | 1022.2 |
| 20260902081108 | 18 | 186 | 6.4 | 11.3 | 0.00 | 0.00 | 0.00 | 71 | 1022.2 |
| 20260902074109 | 17 | 161 | 8.0 | 12.9 | 0.00 | 0.00 | 0.00 | 72 | 1022.4 |